sensor_id;sensor_type;location;lat;lon;timestamp;pressure;altitude;pressure_sealevel;temperature;humidity
81151;BME280;70629;-26.026;27.976;2023-09-30T00:00:57;86557.69;;;20.44;47.47
81151;BME280;70629;-26.026;27.976;2023-09-30T00:02:33;86560.31;;;19.96;48.96
81151;BME280;70629;-26.026;27.976;2023-09-30T00:04:10;86557.94;;;19.79;49.70
81151;BME280;70629;-26.026;27.976;2023-09-30T00:05:46;86550.06;;;19.97;49.42
81151;BME280;70629;-26.026;27.976;2023-09-30T00:07:22;86548.13;;;20.43;48.14
81151;BME280;70629;-26.026;27.976;2023-09-30T00:08:59;86548.41;;;20.62;47.24
81151;BME280;70629;-26.026;27.976;2023-09-30T00:10:35;86561.63;;;20.35;47.96
81151;BME280;70629;-26.026;27.976;2023-09-30T00:12:11;86560.09;;;20.24;48.64
81151;BME280;70629;-26.026;27.976;2023-09-30T00:13:47;86557.94;;;20.19;48.50
81151;BME280;70629;-26.026;27.976;2023-09-30T00:15:25;86561.50;;;19.87;49.17
81151;BME280;70629;-26.026;27.976;2023-09-30T00:17:01;86562.34;;;19.58;50.19
81151;BME280;70629;-26.026;27.976;2023-09-30T00:18:37;86555.44;;;19.93;49.46
81151;BME280;70629;-26.026;27.976;2023-09-30T00:20:13;86552.25;;;20.04;49.09
81151;BME280;70629;-26.026;27.976;2023-09-30T00:21:50;86565.22;;;20.06;49.38
81151;BME280;70629;-26.026;27.976;2023-09-30T00:23:26;86557.22;;;19.76;49.47
81151;BME280;70629;-26.026;27.976;2023-09-30T00:25:02;86552.41;;;19.75;49.44
81151;BME280;70629;-26.026;27.976;2023-09-30T00:26:38;86549.69;;;20.14;48.32
81151;BME280;70629;-26.026;27.976;2023-09-30T00:28:14;86551.13;;;20.20;48.51
81151;BME280;70629;-26.026;27.976;2023-09-30T00:29:50;86549.44;;;20.00;48.39
81151;BME280;70629;-26.026;27.976;2023-09-30T00:31:27;86546.81;;;20.06;48.27
81151;BME280;70629;-26.026;27.976;2023-09-30T00:33:03;86553.66;;;20.49;47.20
81151;BME280;70629;-26.026;27.976;2023-09-30T00:34:39;86554.25;;;20.42;47.17
81151;BME280;70629;-26.026;27.976;2023-09-30T00:36:15;86550.00;;;20.79;46.59
81151;BME280;70629;-26.026;27.976;2023-09-30T00:37:52;86556.34;;;20.45;47.34
81151;BME280;70629;-26.026;27.976;2023-09-30T00:39:29;86552.44;;;20.16;48.06
81151;BME280;70629;-26.026;27.976;2023-09-30T00:41:06;86553.25;;;20.67;46.14
81151;BME280;70629;-26.026;27.976;2023-09-30T00:42:42;86556.78;;;19.90;48.51
81151;BME280;70629;-26.026;27.976;2023-09-30T00:44:19;86554.06;;;20.32;47.46
81151;BME280;70629;-26.026;27.976;2023-09-30T00:46:26;86555.38;;;20.73;46.51
81151;BME280;70629;-26.026;27.976;2023-09-30T00:48:03;86550.44;;;20.61;46.82
81151;BME280;70629;-26.026;27.976;2023-09-30T00:49:39;86558.84;;;19.91;48.24
81151;BME280;70629;-26.026;27.976;2023-09-30T00:51:15;86550.09;;;19.99;47.72
81151;BME280;70629;-26.026;27.976;2023-09-30T00:52:51;86553.63;;;20.05;48.36
81151;BME280;70629;-26.026;27.976;2023-09-30T00:54:27;86540.84;;;20.60;46.51
81151;BME280;70629;-26.026;27.976;2023-09-30T00:56:04;86546.75;;;20.44;46.55
81151;BME280;70629;-26.026;27.976;2023-09-30T00:57:41;86540.59;;;20.44;46.82
81151;BME280;70629;-26.026;27.976;2023-09-30T00:59:20;86543.59;;;20.18;47.85
81151;BME280;70629;-26.026;27.976;2023-09-30T01:00:57;86539.72;;;20.31;46.93
81151;BME280;70629;-26.026;27.976;2023-09-30T01:02:34;86538.91;;;20.25;47.33
81151;BME280;70629;-26.026;27.976;2023-09-30T01:04:14;86538.06;;;19.74;49.01
81151;BME280;70629;-26.026;27.976;2023-09-30T01:05:50;86529.78;;;19.68;49.09
81151;BME280;70629;-26.026;27.976;2023-09-30T01:07:27;86536.00;;;20.12;47.58
81151;BME280;70629;-26.026;27.976;2023-09-30T01:09:03;86530.53;;;20.12;47.40
81151;BME280;70629;-26.026;27.976;2023-09-30T01:10:39;86535.34;;;20.14;47.43
81151;BME280;70629;-26.026;27.976;2023-09-30T01:12:15;86537.78;;;20.38;46.90
81151;BME280;70629;-26.026;27.976;2023-09-30T01:13:52;86531.00;;;20.41;46.92
81151;BME280;70629;-26.026;27.976;2023-09-30T01:15:29;86536.84;;;20.23;47.65
81151;BME280;70629;-26.026;27.976;2023-09-30T01:17:05;86545.81;;;19.88;47.90
81151;BME280;70629;-26.026;27.976;2023-09-30T01:18:44;86536.03;;;19.75;48.71
81151;BME280;70629;-26.026;27.976;2023-09-30T01:20:21;86526.25;;;19.25;50.05
81151;BME280;70629;-26.026;27.976;2023-09-30T01:21:58;86524.25;;;19.28;49.83
81151;BME280;70629;-26.026;27.976;2023-09-30T01:23:35;86527.47;;;19.54;48.70
81151;BME280;70629;-26.026;27.976;2023-09-30T01:25:11;86528.28;;;19.61;49.41
81151;BME280;70629;-26.026;27.976;2023-09-30T01:26:47;86528.75;;;19.49;49.32
81151;BME280;70629;-26.026;27.976;2023-09-30T01:28:23;86521.25;;;19.50;49.97
81151;BME280;70629;-26.026;27.976;2023-09-30T01:29:59;86519.69;;;19.41;49.76
81151;BME280;70629;-26.026;27.976;2023-09-30T01:31:35;86525.03;;;19.70;49.09
81151;BME280;70629;-26.026;27.976;2023-09-30T01:33:12;86521.84;;;20.24;47.25
81151;BME280;70629;-26.026;27.976;2023-09-30T01:34:48;86518.31;;;19.78;48.45
81151;BME280;70629;-26.026;27.976;2023-09-30T01:36:24;86516.41;;;19.44;49.53
81151;BME280;70629;-26.026;27.976;2023-09-30T01:38:00;86514.19;;;19.73;48.68
81151;BME280;70629;-26.026;27.976;2023-09-30T01:39:38;86520.75;;;19.23;49.71
81151;BME280;70629;-26.026;27.976;2023-09-30T01:41:14;86518.44;;;19.44;49.61
81151;BME280;70629;-26.026;27.976;2023-09-30T01:42:52;86524.66;;;19.48;49.05
81151;BME280;70629;-26.026;27.976;2023-09-30T01:44:27;86521.44;;;19.60;48.78
81151;BME280;70629;-26.026;27.976;2023-09-30T01:46:04;86515.97;;;19.58;49.24
81151;BME280;70629;-26.026;27.976;2023-09-30T01:47:41;86522.31;;;19.35;49.15
81151;BME280;70629;-26.026;27.976;2023-09-30T01:49:17;86520.25;;;19.33;49.65
81151;BME280;70629;-26.026;27.976;2023-09-30T01:50:59;86524.34;;;19.70;49.27
81151;BME280;70629;-26.026;27.976;2023-09-30T01:52:35;86521.38;;;19.22;49.85
81151;BME280;70629;-26.026;27.976;2023-09-30T01:54:11;86522.47;;;19.07;50.25
81151;BME280;70629;-26.026;27.976;2023-09-30T01:55:47;86523.69;;;19.36;49.66
81151;BME280;70629;-26.026;27.976;2023-09-30T01:57:23;86521.94;;;19.50;49.01
81151;BME280;70629;-26.026;27.976;2023-09-30T01:59:00;86519.75;;;19.81;48.20
81151;BME280;70629;-26.026;27.976;2023-09-30T02:00:36;86516.78;;;19.30;49.71
81151;BME280;70629;-26.026;27.976;2023-09-30T02:02:12;86515.97;;;19.24;50.42
81151;BME280;70629;-26.026;27.976;2023-09-30T02:03:48;86508.84;;;19.81;48.85
81151;BME280;70629;-26.026;27.976;2023-09-30T02:05:25;86509.81;;;19.57;49.11
81151;BME280;70629;-26.026;27.976;2023-09-30T02:07:01;86501.94;;;19.76;48.53
81151;BME280;70629;-26.026;27.976;2023-09-30T02:08:37;86506.81;;;19.83;48.00
81151;BME280;70629;-26.026;27.976;2023-09-30T02:10:13;86506.75;;;20.19;46.87
81151;BME280;70629;-26.026;27.976;2023-09-30T02:11:49;86508.28;;;19.88;47.67
81151;BME280;70629;-26.026;27.976;2023-09-30T02:13:26;86507.88;;;19.64;48.33
81151;BME280;70629;-26.026;27.976;2023-09-30T02:15:03;86511.97;;;19.63;48.85
81151;BME280;70629;-26.026;27.976;2023-09-30T02:16:39;86502.59;;;19.74;48.27
81151;BME280;70629;-26.026;27.976;2023-09-30T02:18:16;86505.19;;;19.66;48.60
81151;BME280;70629;-26.026;27.976;2023-09-30T02:19:53;86502.56;;;19.36;49.09
81151;BME280;70629;-26.026;27.976;2023-09-30T02:21:30;86512.41;;;19.15;49.35
81151;BME280;70629;-26.026;27.976;2023-09-30T02:23:10;86510.50;;;19.58;48.73
81151;BME280;70629;-26.026;27.976;2023-09-30T02:24:52;86507.09;;;19.99;46.85
81151;BME280;70629;-26.026;27.976;2023-09-30T02:26:29;86508.06;;;19.38;48.68
81151;BME280;70629;-26.026;27.976;2023-09-30T02:28:06;86508.03;;;19.00;50.35
81151;BME280;70629;-26.026;27.976;2023-09-30T02:29:42;86500.03;;;19.10;49.50
81151;BME280;70629;-26.026;27.976;2023-09-30T02:31:19;86504.56;;;19.34;49.16
81151;BME280;70629;-26.026;27.976;2023-09-30T02:32:55;86496.28;;;19.27;49.06
81151;BME280;70629;-26.026;27.976;2023-09-30T02:34:33;86497.41;;;18.80;50.28
81151;BME280;70629;-26.026;27.976;2023-09-30T02:36:08;86495.84;;;19.05;50.38
81151;BME280;70629;-26.026;27.976;2023-09-30T02:37:45;86499.88;;;19.38;48.79
81151;BME280;70629;-26.026;27.976;2023-09-30T02:39:21;86494.88;;;19.26;49.33
81151;BME280;70629;-26.026;27.976;2023-09-30T02:40:59;86497.59;;;19.24;49.68
81151;BME280;70629;-26.026;27.976;2023-09-30T02:42:41;86489.84;;;19.13;50.02
81151;BME280;70629;-26.026;27.976;2023-09-30T02:44:17;86491.66;;;19.36;48.92
81151;BME280;70629;-26.026;27.976;2023-09-30T02:45:53;86501.69;;;18.90;49.55
81151;BME280;70629;-26.026;27.976;2023-09-30T02:47:30;86496.06;;;19.15;48.80
81151;BME280;70629;-26.026;27.976;2023-09-30T02:49:06;86495.72;;;18.99;50.73
81151;BME280;70629;-26.026;27.976;2023-09-30T02:50:44;86499.50;;;18.82;49.87
81151;BME280;70629;-26.026;27.976;2023-09-30T02:52:24;86506.41;;;19.59;48.04
81151;BME280;70629;-26.026;27.976;2023-09-30T02:54:00;86495.66;;;18.95;49.64
81151;BME280;70629;-26.026;27.976;2023-09-30T02:55:36;86499.41;;;18.78;50.11
81151;BME280;70629;-26.026;27.976;2023-09-30T02:57:12;86497.31;;;19.10;50.30
81151;BME280;70629;-26.026;27.976;2023-09-30T02:58:48;86494.66;;;19.14;49.82
81151;BME280;70629;-26.026;27.976;2023-09-30T03:00:24;86496.56;;;19.06;49.58
81151;BME280;70629;-26.026;27.976;2023-09-30T03:02:01;86498.03;;;19.13;49.13
81151;BME280;70629;-26.026;27.976;2023-09-30T03:03:39;86501.31;;;19.05;49.15
81151;BME280;70629;-26.026;27.976;2023-09-30T03:05:15;86504.03;;;19.05;50.01
81151;BME280;70629;-26.026;27.976;2023-09-30T03:06:51;86500.13;;;18.80;49.90
81151;BME280;70629;-26.026;27.976;2023-09-30T03:08:27;86505.34;;;19.38;49.32
81151;BME280;70629;-26.026;27.976;2023-09-30T03:10:03;86500.41;;;19.66;47.86
81151;BME280;70629;-26.026;27.976;2023-09-30T03:11:43;86510.94;;;19.10;49.51
81151;BME280;70629;-26.026;27.976;2023-09-30T03:13:19;86518.84;;;18.96;49.10
81151;BME280;70629;-26.026;27.976;2023-09-30T03:14:56;86517.72;;;19.43;48.61
81151;BME280;70629;-26.026;27.976;2023-09-30T03:16:34;86525.00;;;19.33;48.89
81151;BME280;70629;-26.026;27.976;2023-09-30T03:18:09;86524.13;;;19.22;49.39
81151;BME280;70629;-26.026;27.976;2023-09-30T03:19:47;86523.78;;;19.40;49.29
81151;BME280;70629;-26.026;27.976;2023-09-30T03:21:23;86526.25;;;19.25;48.60
81151;BME280;70629;-26.026;27.976;2023-09-30T03:23:00;86524.16;;;19.24;49.05
81151;BME280;70629;-26.026;27.976;2023-09-30T03:24:40;86530.06;;;19.12;49.09
81151;BME280;70629;-26.026;27.976;2023-09-30T03:26:16;86521.94;;;19.14;49.03
81151;BME280;70629;-26.026;27.976;2023-09-30T03:27:52;86524.53;;;19.08;49.65
81151;BME280;70629;-26.026;27.976;2023-09-30T03:29:29;86527.59;;;19.24;48.63
81151;BME280;70629;-26.026;27.976;2023-09-30T03:31:05;86529.34;;;19.44;48.27
81151;BME280;70629;-26.026;27.976;2023-09-30T03:32:42;86531.31;;;19.07;48.83
81151;BME280;70629;-26.026;27.976;2023-09-30T03:34:18;86537.56;;;18.78;49.76
81151;BME280;70629;-26.026;27.976;2023-09-30T03:35:56;86534.47;;;18.94;49.23
81151;BME280;70629;-26.026;27.976;2023-09-30T03:37:33;86533.47;;;18.79;50.11
81151;BME280;70629;-26.026;27.976;2023-09-30T03:39:10;86534.59;;;19.00;50.55
81151;BME280;70629;-26.026;27.976;2023-09-30T03:40:50;86535.59;;;18.82;50.47
81151;BME280;70629;-26.026;27.976;2023-09-30T03:42:27;86535.84;;;19.28;48.92
81151;BME280;70629;-26.026;27.976;2023-09-30T03:44:05;86545.44;;;18.98;49.70
81151;BME280;70629;-26.026;27.976;2023-09-30T03:45:41;86540.94;;;18.76;50.50
81151;BME280;70629;-26.026;27.976;2023-09-30T03:47:18;86540.97;;;18.19;52.13
81151;BME280;70629;-26.026;27.976;2023-09-30T03:48:56;86540.94;;;18.17;51.69
81151;BME280;70629;-26.026;27.976;2023-09-30T03:50:33;86549.13;;;17.89;52.52
81151;BME280;70629;-26.026;27.976;2023-09-30T03:52:09;86547.47;;;18.06;52.08
81151;BME280;70629;-26.026;27.976;2023-09-30T03:53:49;86548.75;;;18.30;51.52
81151;BME280;70629;-26.026;27.976;2023-09-30T03:55:25;86556.84;;;18.28;51.55
81151;BME280;70629;-26.026;27.976;2023-09-30T03:57:01;86557.66;;;18.05;51.89
81151;BME280;70629;-26.026;27.976;2023-09-30T03:58:39;86563.97;;;17.84;52.91
81151;BME280;70629;-26.026;27.976;2023-09-30T04:00:16;86563.00;;;18.29;51.58
81151;BME280;70629;-26.026;27.976;2023-09-30T04:01:56;86560.88;;;18.55;51.51
81151;BME280;70629;-26.026;27.976;2023-09-30T04:03:35;86560.25;;;18.57;50.72
81151;BME280;70629;-26.026;27.976;2023-09-30T04:05:15;86569.69;;;18.24;51.59
81151;BME280;70629;-26.026;27.976;2023-09-30T04:06:52;86564.06;;;18.16;52.09
81151;BME280;70629;-26.026;27.976;2023-09-30T04:08:28;86560.00;;;18.47;51.06
81151;BME280;70629;-26.026;27.976;2023-09-30T04:10:04;86563.78;;;18.33;51.25
81151;BME280;70629;-26.026;27.976;2023-09-30T04:11:40;86567.03;;;18.56;51.92
81151;BME280;70629;-26.026;27.976;2023-09-30T04:13:17;86571.22;;;18.61;50.82
81151;BME280;70629;-26.026;27.976;2023-09-30T04:14:55;86577.91;;;18.56;51.45
81151;BME280;70629;-26.026;27.976;2023-09-30T04:16:35;86581.13;;;18.18;52.38
81151;BME280;70629;-26.026;27.976;2023-09-30T04:18:13;86584.97;;;18.37;51.66
81151;BME280;70629;-26.026;27.976;2023-09-30T04:19:48;86587.84;;;18.15;52.30
81151;BME280;70629;-26.026;27.976;2023-09-30T04:21:27;86594.94;;;18.54;51.63
81151;BME280;70629;-26.026;27.976;2023-09-30T04:23:07;86589.97;;;18.76;50.35
81151;BME280;70629;-26.026;27.976;2023-09-30T04:24:45;86592.56;;;18.70;50.50
81151;BME280;70629;-26.026;27.976;2023-09-30T04:26:21;86591.09;;;18.97;50.52
81151;BME280;70629;-26.026;27.976;2023-09-30T04:27:58;86593.53;;;18.83;50.34
81151;BME280;70629;-26.026;27.976;2023-09-30T04:29:34;86600.81;;;19.40;49.13
81151;BME280;70629;-26.026;27.976;2023-09-30T04:31:10;86595.19;;;19.64;48.19
81151;BME280;70629;-26.026;27.976;2023-09-30T04:32:48;86593.13;;;19.30;48.25
81151;BME280;70629;-26.026;27.976;2023-09-30T04:34:24;86593.94;;;19.03;49.64
81151;BME280;70629;-26.026;27.976;2023-09-30T04:36:01;86596.00;;;19.37;49.78
81151;BME280;70629;-26.026;27.976;2023-09-30T04:37:37;86599.03;;;19.51;48.95
81151;BME280;70629;-26.026;27.976;2023-09-30T04:39:13;86592.22;;;19.52;48.89
81151;BME280;70629;-26.026;27.976;2023-09-30T04:40:51;86601.41;;;20.06;47.36
81151;BME280;70629;-26.026;27.976;2023-09-30T04:42:29;86604.50;;;19.89;47.31
81151;BME280;70629;-26.026;27.976;2023-09-30T04:44:06;86606.59;;;19.90;47.91
81151;BME280;70629;-26.026;27.976;2023-09-30T04:45:42;86609.78;;;19.79;47.61
81151;BME280;70629;-26.026;27.976;2023-09-30T04:47:18;86606.03;;;19.60;49.29
81151;BME280;70629;-26.026;27.976;2023-09-30T04:48:54;86615.47;;;20.29;47.35
81151;BME280;70629;-26.026;27.976;2023-09-30T04:50:30;86605.22;;;19.89;47.97
81151;BME280;70629;-26.026;27.976;2023-09-30T04:52:06;86609.19;;;19.82;48.06
81151;BME280;70629;-26.026;27.976;2023-09-30T04:53:44;86615.78;;;20.47;46.82
81151;BME280;70629;-26.026;27.976;2023-09-30T04:55:23;86620.31;;;20.74;46.01
81151;BME280;70629;-26.026;27.976;2023-09-30T04:56:59;86619.06;;;20.37;46.84
81151;BME280;70629;-26.026;27.976;2023-09-30T04:58:35;86619.16;;;20.43;47.61
81151;BME280;70629;-26.026;27.976;2023-09-30T05:00:16;86625.91;;;20.40;46.72
81151;BME280;70629;-26.026;27.976;2023-09-30T05:01:57;86627.50;;;20.53;47.81
81151;BME280;70629;-26.026;27.976;2023-09-30T05:03:33;86630.97;;;20.56;47.84
81151;BME280;70629;-26.026;27.976;2023-09-30T05:05:09;86639.91;;;20.21;48.51
81151;BME280;70629;-26.026;27.976;2023-09-30T05:06:46;86641.28;;;20.22;49.05
81151;BME280;70629;-26.026;27.976;2023-09-30T05:08:23;86630.66;;;20.38;48.76
81151;BME280;70629;-26.026;27.976;2023-09-30T05:09:59;86629.06;;;21.11;46.84
81151;BME280;70629;-26.026;27.976;2023-09-30T05:11:37;86639.16;;;20.56;48.08
81151;BME280;70629;-26.026;27.976;2023-09-30T05:13:14;86645.84;;;20.89;47.01
81151;BME280;70629;-26.026;27.976;2023-09-30T05:14:49;86637.84;;;21.03;46.70
81151;BME280;70629;-26.026;27.976;2023-09-30T05:16:25;86645.41;;;20.63;47.88
81151;BME280;70629;-26.026;27.976;2023-09-30T05:18:02;86638.19;;;20.79;48.36
81151;BME280;70629;-26.026;27.976;2023-09-30T05:19:40;86646.84;;;20.68;47.57
81151;BME280;70629;-26.026;27.976;2023-09-30T05:21:16;86645.63;;;21.19;46.53
81151;BME280;70629;-26.026;27.976;2023-09-30T05:22:52;86647.16;;;20.86;47.34
81151;BME280;70629;-26.026;27.976;2023-09-30T05:24:28;86647.78;;;20.82;47.04
81151;BME280;70629;-26.026;27.976;2023-09-30T05:26:05;86645.47;;;21.09;48.51
81151;BME280;70629;-26.026;27.976;2023-09-30T05:27:41;86641.13;;;20.93;48.05
81151;BME280;70629;-26.026;27.976;2023-09-30T05:29:17;86649.44;;;21.01;46.89
81151;BME280;70629;-26.026;27.976;2023-09-30T05:30:53;86643.47;;;20.69;47.12
81151;BME280;70629;-26.026;27.976;2023-09-30T05:32:30;86646.88;;;21.12;46.65
81151;BME280;70629;-26.026;27.976;2023-09-30T05:34:06;86649.47;;;21.03;46.83
81151;BME280;70629;-26.026;27.976;2023-09-30T05:35:42;86648.75;;;21.47;46.94
81151;BME280;70629;-26.026;27.976;2023-09-30T05:37:17;86648.59;;;21.35;45.98
81151;BME280;70629;-26.026;27.976;2023-09-30T05:38:57;86647.94;;;21.90;45.93
81151;BME280;70629;-26.026;27.976;2023-09-30T05:40:33;86646.44;;;21.79;46.83
81151;BME280;70629;-26.026;27.976;2023-09-30T05:42:09;86638.22;;;21.81;44.10
81151;BME280;70629;-26.026;27.976;2023-09-30T05:43:47;86650.69;;;21.93;44.26
81151;BME280;70629;-26.026;27.976;2023-09-30T05:45:24;86650.78;;;21.97;44.51
81151;BME280;70629;-26.026;27.976;2023-09-30T05:47:01;86653.13;;;22.24;43.73
81151;BME280;70629;-26.026;27.976;2023-09-30T05:48:37;86648.72;;;21.97;46.01
81151;BME280;70629;-26.026;27.976;2023-09-30T05:50:14;86655.97;;;21.76;43.95
81151;BME280;70629;-26.026;27.976;2023-09-30T05:51:52;86661.31;;;21.64;43.56
81151;BME280;70629;-26.026;27.976;2023-09-30T05:53:28;86659.34;;;22.27;42.72
81151;BME280;70629;-26.026;27.976;2023-09-30T05:55:04;86647.75;;;21.74;43.67
81151;BME280;70629;-26.026;27.976;2023-09-30T05:56:40;86648.50;;;21.81;43.11
81151;BME280;70629;-26.026;27.976;2023-09-30T05:58:19;86654.22;;;22.63;42.26
81151;BME280;70629;-26.026;27.976;2023-09-30T05:59:54;86648.44;;;23.05;41.78
81151;BME280;70629;-26.026;27.976;2023-09-30T06:01:31;86651.38;;;23.30;42.25
81151;BME280;70629;-26.026;27.976;2023-09-30T06:03:11;86650.00;;;22.52;41.29
81151;BME280;70629;-26.026;27.976;2023-09-30T06:04:48;86651.66;;;22.82;39.08
81151;BME280;70629;-26.026;27.976;2023-09-30T06:06:29;86644.09;;;22.80;39.15
81151;BME280;70629;-26.026;27.976;2023-09-30T06:08:05;86651.38;;;23.30;38.03
81151;BME280;70629;-26.026;27.976;2023-09-30T06:09:44;86644.16;;;23.81;36.32
81151;BME280;70629;-26.026;27.976;2023-09-30T06:11:21;86646.31;;;24.06;37.15
81151;BME280;70629;-26.026;27.976;2023-09-30T06:13:00;86657.66;;;23.46;38.80
81151;BME280;70629;-26.026;27.976;2023-09-30T06:14:37;86644.97;;;23.01;38.84
81151;BME280;70629;-26.026;27.976;2023-09-30T06:16:13;86642.88;;;22.95;39.87
81151;BME280;70629;-26.026;27.976;2023-09-30T06:17:50;86648.28;;;23.82;37.55
81151;BME280;70629;-26.026;27.976;2023-09-30T06:19:29;86653.59;;;23.51;39.17
81151;BME280;70629;-26.026;27.976;2023-09-30T06:21:05;86650.94;;;23.64;37.79
81151;BME280;70629;-26.026;27.976;2023-09-30T06:22:42;86651.38;;;23.34;37.82
81151;BME280;70629;-26.026;27.976;2023-09-30T06:24:21;86648.97;;;23.82;37.45
81151;BME280;70629;-26.026;27.976;2023-09-30T06:25:59;86642.94;;;24.14;38.18
81151;BME280;70629;-26.026;27.976;2023-09-30T06:27:37;86642.50;;;24.90;36.27
81151;BME280;70629;-26.026;27.976;2023-09-30T06:29:13;86643.50;;;23.86;36.83
81151;BME280;70629;-26.026;27.976;2023-09-30T06:30:50;86649.72;;;23.97;36.76
81151;BME280;70629;-26.026;27.976;2023-09-30T06:32:26;86651.38;;;24.73;36.91
81151;BME280;70629;-26.026;27.976;2023-09-30T06:34:02;86652.13;;;25.12;35.23
81151;BME280;70629;-26.026;27.976;2023-09-30T06:35:41;86656.19;;;24.78;35.06
81151;BME280;70629;-26.026;27.976;2023-09-30T06:37:26;86652.72;;;24.66;37.00
81151;BME280;70629;-26.026;27.976;2023-09-30T06:39:04;86651.38;;;24.71;35.54
81151;BME280;70629;-26.026;27.976;2023-09-30T06:40:41;86652.06;;;24.79;36.28
81151;BME280;70629;-26.026;27.976;2023-09-30T06:42:18;86653.50;;;24.99;35.66
81151;BME280;70629;-26.026;27.976;2023-09-30T06:43:54;86655.56;;;24.90;35.93
81151;BME280;70629;-26.026;27.976;2023-09-30T06:45:30;86658.34;;;25.57;34.38
81151;BME280;70629;-26.026;27.976;2023-09-30T06:47:08;86654.22;;;25.38;34.37
81151;BME280;70629;-26.026;27.976;2023-09-30T06:48:47;86653.50;;;25.03;34.56
81151;BME280;70629;-26.026;27.976;2023-09-30T06:50:23;86655.59;;;25.00;33.93
81151;BME280;70629;-26.026;27.976;2023-09-30T06:51:59;86657.66;;;25.40;33.34
81151;BME280;70629;-26.026;27.976;2023-09-30T06:53:36;86647.31;;;25.49;33.63
81151;BME280;70629;-26.026;27.976;2023-09-30T06:55:12;86645.91;;;25.92;33.14
81151;BME280;70629;-26.026;27.976;2023-09-30T06:56:52;86642.81;;;26.79;31.70
81151;BME280;70629;-26.026;27.976;2023-09-30T06:58:28;86645.56;;;26.87;31.70
81151;BME280;70629;-26.026;27.976;2023-09-30T07:00:09;86648.53;;;27.61;32.88
81151;BME280;70629;-26.026;27.976;2023-09-30T07:01:48;86656.41;;;27.18;31.66
81151;BME280;70629;-26.026;27.976;2023-09-30T07:03:25;86653.13;;;26.85;32.94
81151;BME280;70629;-26.026;27.976;2023-09-30T07:05:01;86647.00;;;26.74;33.35
81151;BME280;70629;-26.026;27.976;2023-09-30T07:06:37;86648.06;;;27.30;32.27
81151;BME280;70629;-26.026;27.976;2023-09-30T07:08:13;86656.41;;;27.18;33.62
81151;BME280;70629;-26.026;27.976;2023-09-30T07:09:49;86657.53;;;26.35;32.18
81151;BME280;70629;-26.026;27.976;2023-09-30T07:11:29;86647.53;;;27.05;30.69
81151;BME280;70629;-26.026;27.976;2023-09-30T07:13:07;86648.22;;;27.05;30.37
81151;BME280;70629;-26.026;27.976;2023-09-30T07:14:43;86657.03;;;27.30;32.56
81151;BME280;70629;-26.026;27.976;2023-09-30T07:16:20;86648.50;;;27.67;31.66
81151;BME280;70629;-26.026;27.976;2023-09-30T07:17:56;86649.28;;;28.32;30.60
81151;BME280;70629;-26.026;27.976;2023-09-30T07:19:32;86651.34;;;28.30;31.60
81151;BME280;70629;-26.026;27.976;2023-09-30T07:21:08;86653.63;;;28.09;29.33
81151;BME280;70629;-26.026;27.976;2023-09-30T07:22:44;86648.84;;;28.06;34.36
81151;BME280;70629;-26.026;27.976;2023-09-30T07:24:36;86651.34;;;28.34;29.58
81151;BME280;70629;-26.026;27.976;2023-09-30T07:26:12;86658.50;;;28.76;30.88
81151;BME280;70629;-26.026;27.976;2023-09-30T07:27:48;86642.22;;;29.03;28.09
81151;BME280;70629;-26.026;27.976;2023-09-30T07:29:25;86642.84;;;28.50;30.92
81151;BME280;70629;-26.026;27.976;2023-09-30T07:31:00;86645.84;;;28.89;30.38
81151;BME280;70629;-26.026;27.976;2023-09-30T07:32:36;86650.06;;;28.86;30.73
81151;BME280;70629;-26.026;27.976;2023-09-30T07:34:12;86638.34;;;28.82;30.73
81151;BME280;70629;-26.026;27.976;2023-09-30T07:35:49;86645.53;;;28.56;28.35
81151;BME280;70629;-26.026;27.976;2023-09-30T07:37:25;86643.88;;;29.80;29.00
81151;BME280;70629;-26.026;27.976;2023-09-30T07:39:01;86646.00;;;29.30;29.69
81151;BME280;70629;-26.026;27.976;2023-09-30T07:40:37;86644.84;;;29.13;30.89
81151;BME280;70629;-26.026;27.976;2023-09-30T07:42:13;86639.69;;;29.36;29.12
81151;BME280;70629;-26.026;27.976;2023-09-30T07:43:49;86634.81;;;28.26;28.70
81151;BME280;70629;-26.026;27.976;2023-09-30T07:45:26;86643.34;;;29.22;29.40
81151;BME280;70629;-26.026;27.976;2023-09-30T07:47:02;86652.97;;;29.25;30.96
81151;BME280;70629;-26.026;27.976;2023-09-30T07:48:39;86639.16;;;28.72;27.28
81151;BME280;70629;-26.026;27.976;2023-09-30T07:50:15;86640.88;;;28.41;28.35
81151;BME280;70629;-26.026;27.976;2023-09-30T07:51:51;86643.28;;;29.26;28.13
81151;BME280;70629;-26.026;27.976;2023-09-30T07:53:27;86631.78;;;29.99;28.10
81151;BME280;70629;-26.026;27.976;2023-09-30T07:55:04;86635.44;;;29.88;26.49
81151;BME280;70629;-26.026;27.976;2023-09-30T07:56:40;86641.97;;;31.22;26.64
81151;BME280;70629;-26.026;27.976;2023-09-30T07:58:16;86634.34;;;29.19;26.85
81151;BME280;70629;-26.026;27.976;2023-09-30T07:59:52;86633.97;;;29.93;26.99
81151;BME280;70629;-26.026;27.976;2023-09-30T08:01:28;86632.22;;;29.24;26.29
81151;BME280;70629;-26.026;27.976;2023-09-30T08:03:05;86631.03;;;30.42;26.42
81151;BME280;70629;-26.026;27.976;2023-09-30T08:04:41;86633.28;;;29.92;26.35
81151;BME280;70629;-26.026;27.976;2023-09-30T08:06:18;86630.03;;;30.60;25.58
81151;BME280;70629;-26.026;27.976;2023-09-30T08:07:55;86618.34;;;31.23;26.08
81151;BME280;70629;-26.026;27.976;2023-09-30T08:09:30;86623.13;;;29.32;25.94
81151;BME280;70629;-26.026;27.976;2023-09-30T08:11:06;86628.03;;;30.15;25.81
81151;BME280;70629;-26.026;27.976;2023-09-30T08:12:42;86622.53;;;30.13;25.24
81151;BME280;70629;-26.026;27.976;2023-09-30T08:14:22;86628.50;;;30.28;26.74
81151;BME280;70629;-26.026;27.976;2023-09-30T08:15:58;86620.41;;;29.73;25.81
81151;BME280;70629;-26.026;27.976;2023-09-30T08:17:34;86627.34;;;29.24;26.64
81151;BME280;70629;-26.026;27.976;2023-09-30T08:19:10;86627.22;;;30.23;26.88
81151;BME280;70629;-26.026;27.976;2023-09-30T08:20:47;86614.94;;;29.69;25.75